createdAt,value
2022-12-23T00:02:42.447Z,100129.97
2022-12-23T00:05:51.584Z,100119.75
2022-12-23T00:09:02.890Z,100127.81
2022-12-23T00:12:27.510Z,100121.72
2022-12-23T00:15:33.968Z,100132.81
2022-12-23T00:18:41.270Z,100129.47
2022-12-23T00:21:48.703Z,100128.41
2022-12-23T00:24:56.900Z,100134.09
2022-12-23T00:28:04.020Z,100129.59
2022-12-23T00:31:14.038Z,100128.91
2022-12-23T00:34:22.068Z,100129.34
2022-12-23T00:37:31.805Z,100129.34
2022-12-23T00:40:59.823Z,100132.22
2022-12-23T00:44:08.433Z,100121.59
2022-12-23T00:47:34.569Z,100115.03
2022-12-23T00:50:44.538Z,100110.59
2022-12-23T00:53:50.512Z,100107.97
2022-12-23T00:56:56.826Z,100105.09
2022-12-23T01:00:03.336Z,100106.47
2022-12-23T01:03:33.068Z,100104.84
2022-12-23T01:06:41.159Z,100106.19
2022-12-23T01:09:50.658Z,100111.28
2022-12-23T01:12:58.457Z,100111.44
2022-12-23T01:16:13.497Z,100100.22
2022-12-23T01:19:22.475Z,100103.81
2022-12-23T01:22:29.783Z,100102.06
2022-12-23T01:25:35.983Z,100096.31
2022-12-23T01:28:43.092Z,100085.97
2022-12-23T01:31:52.044Z,100091.00
2022-12-23T01:34:58.794Z,100088.09
2022-12-23T01:38:04.068Z,100090.59
2022-12-23T01:41:36.384Z,100086.56
2022-12-23T01:45:03.509Z,100080.53
2022-12-23T01:48:13.655Z,100064.81
2022-12-23T01:51:24.208Z,100071.44
2022-12-23T01:54:32.679Z,100064.66
2022-12-23T01:57:41.509Z,100067.28
2022-12-23T02:01:08.279Z,100064.66
2022-12-23T02:04:18.867Z,100064.56
2022-12-23T02:07:43.792Z,100065.09
2022-12-23T02:10:53.840Z,100055.97
2022-12-23T02:14:21.073Z,100052.25
2022-12-23T02:17:30.879Z,100055.16
2022-12-23T02:20:42.908Z,100046.12
2022-12-23T02:24:21.573Z,100049.16
2022-12-23T02:27:32.773Z,100048.84
2022-12-23T02:31:10.241Z,100048.81
2022-12-23T02:34:21.996Z,100054.56
2022-12-23T02:37:33.251Z,100051.50
2022-12-23T02:40:39.704Z,100053.53
2022-12-23T02:43:47.460Z,100044.59
2022-12-23T02:46:58.459Z,100044.72
2022-12-23T02:50:10.914Z,100046.44
2022-12-23T02:53:20.761Z,100044.22
2022-12-23T02:56:28.477Z,100042.97
2022-12-23T02:59:38.915Z,100048.06
2022-12-23T03:02:46.641Z,100043.25
2022-12-23T03:05:54.048Z,100050.25
2022-12-23T03:09:03.505Z,100058.78
2022-12-23T03:12:19.340Z,100054.91
2022-12-23T03:15:34.130Z,100052.03
2022-12-23T03:18:53.349Z,100054.53
2022-12-23T03:22:19.036Z,100049.41
2022-12-23T03:25:30.870Z,100045.66
2022-12-23T03:28:50.548Z,100044.16
2022-12-23T03:31:58.370Z,100041.97
2022-12-23T03:35:08.618Z,100041.81
2022-12-23T03:38:16.400Z,100040.97
2022-12-23T03:41:29.085Z,100040.97
2022-12-23T03:44:38.637Z,100042.06
2022-12-23T03:47:54.091Z,100036.50
2022-12-23T03:51:05.205Z,100032.91
2022-12-23T03:54:21.111Z,100032.66
2022-12-23T03:57:30.205Z,100031.62
2022-12-23T04:00:40.740Z,100026.16
2022-12-23T04:03:57.682Z,100027.50
2022-12-23T04:07:08.962Z,100031.62
2022-12-23T04:10:16.833Z,100022.25
2022-12-23T04:13:21.840Z,100024.03
2022-12-23T04:16:29.837Z,100030.44
2022-12-23T04:19:38.085Z,100019.75
2022-12-23T04:22:44.911Z,100018.28
2022-12-23T04:25:52.331Z,100010.37
2022-12-23T04:29:01.002Z,100014.25
2022-12-23T04:32:06.563Z,100007.44
2022-12-23T04:35:13.103Z,100004.28
2022-12-23T04:38:21.312Z,100015.06
2022-12-23T04:41:26.642Z,100012.44
2022-12-23T04:44:33.798Z,100016.44
2022-12-23T04:47:41.606Z,100009.66
2022-12-23T04:50:50.740Z,100020.13
2022-12-23T04:53:56.741Z,100027.25
2022-12-23T04:57:03.444Z,100025.72
2022-12-23T05:00:10.064Z,100021.25
2022-12-23T05:03:15.204Z,100028.53
2022-12-23T05:06:23.622Z,100016.28
2022-12-23T05:09:29.283Z,100013.06
2022-12-23T05:12:36.685Z,100019.28
2022-12-23T05:15:45.447Z,100020.91
2022-12-23T05:18:55.720Z,100027.97
2022-12-23T05:22:00.520Z,100028.28
2022-12-23T05:25:08.148Z,100037.34
2022-12-23T05:28:15.324Z,100031.59
2022-12-23T05:31:24.015Z,100028.53
2022-12-23T05:34:29.485Z,100031.53
2022-12-23T05:37:38.918Z,100021.38
2022-12-23T05:40:43.694Z,100016.59
2022-12-23T05:43:52.697Z,100019.16
2022-12-23T05:46:59.819Z,100030.69
2022-12-23T05:50:08.948Z,100030.56
2022-12-23T05:53:18.524Z,100024.19
2022-12-23T05:56:26.097Z,100029.69
2022-12-23T05:59:33.751Z,100043.75
2022-12-23T06:02:40.881Z,100048.72
2022-12-23T06:05:52.119Z,100051.66
2022-12-23T06:09:01.453Z,100044.44
2022-12-23T06:12:09.493Z,100048.66
2022-12-23T06:15:15.300Z,100038.97
2022-12-23T06:18:21.809Z,100038.38
2022-12-23T06:21:29.026Z,100044.34
2022-12-23T06:24:35.970Z,100038.06
2022-12-23T06:27:43.411Z,100048.38
2022-12-23T06:30:56.961Z,100041.19
2022-12-23T06:34:05.491Z,100044.09
2022-12-23T06:37:11.384Z,100041.47
2022-12-23T06:40:18.488Z,100041.47
2022-12-23T06:43:25.280Z,100030.44
2022-12-23T06:46:32.381Z,100048.44
2022-12-23T06:49:39.768Z,100052.41
2022-12-23T06:52:45.098Z,100058.81
2022-12-23T06:56:01.580Z,100056.06
2022-12-23T06:59:08.292Z,100057.28
2022-12-23T07:02:16.824Z,100053.00
2022-12-23T07:05:23.067Z,100060.25
2022-12-23T07:08:29.560Z,100068.31
2022-12-23T07:11:36.133Z,100066.66
2022-12-23T07:14:42.897Z,100082.72
2022-12-23T07:17:47.472Z,100088.53
2022-12-23T07:20:53.596Z,100089.72
2022-12-23T07:23:58.595Z,100092.22
2022-12-23T07:27:03.294Z,100094.22
2022-12-23T07:30:06.854Z,100091.75
2022-12-23T07:33:10.445Z,100091.41
2022-12-23T07:36:15.103Z,100081.13
2022-12-23T07:39:20.908Z,100072.59
2022-12-23T07:45:57.310Z,100063.66
2022-12-23T07:49:04.359Z,100062.66
2022-12-23T07:52:11.266Z,100073.66
2022-12-23T07:55:14.854Z,100067.19
2022-12-23T07:58:19.676Z,100073.53
2022-12-23T08:01:25.497Z,100067.19
2022-12-23T08:04:32.001Z,100061.03
2022-12-23T08:07:36.577Z,100066.25
2022-12-23T08:10:47.946Z,100062.50
2022-12-23T08:13:54.529Z,100059.22
2022-12-23T08:17:00.363Z,100049.34
2022-12-23T08:20:04.315Z,100054.47
2022-12-23T08:23:09.447Z,100050.34
2022-12-23T08:26:19.730Z,100044.44
2022-12-23T08:29:29.897Z,100053.19
2022-12-23T08:32:37.920Z,100055.81
2022-12-23T08:35:43.463Z,100050.19
2022-12-23T08:38:50.401Z,100050.13
2022-12-23T08:41:56.047Z,100047.13
2022-12-23T08:45:02.091Z,100054.22
2022-12-23T08:48:07.844Z,100051.63
2022-12-23T08:51:13.695Z,100040.72
2022-12-23T08:54:21.363Z,100039.94
2022-12-23T08:57:27.279Z,100022.25
2022-12-23T09:00:35.306Z,100008.44
2022-12-23T09:03:40.729Z,99996.03
2022-12-23T09:06:46.917Z,99996.59
2022-12-23T09:09:52.384Z,100014.94
2022-12-23T09:12:59.418Z,100019.25
2022-12-23T09:16:02.575Z,100029.16
2022-12-23T09:19:06.463Z,100038.25
2022-12-23T09:22:10.601Z,100029.56
2022-12-23T09:25:14.993Z,100035.75
2022-12-23T09:28:21.422Z,100036.69
2022-12-23T09:31:30.483Z,100034.41
2022-12-23T09:34:37.237Z,100037.91
2022-12-23T09:37:41.660Z,100029.53
2022-12-23T09:40:46.406Z,100022.91
2022-12-23T09:43:55.303Z,100017.69
2022-12-23T09:47:02.646Z,100004.41
2022-12-23T09:50:13.969Z,99998.50
2022-12-23T09:53:21.980Z,99999.22
2022-12-23T09:56:31.566Z,100011.16
2022-12-23T09:59:44.983Z,100018.34
2022-12-23T10:03:08.682Z,100018.62
2022-12-23T10:06:20.373Z,100004.31
2022-12-23T10:09:23.911Z,99996.03
2022-12-23T10:12:39.711Z,99980.53
2022-12-23T10:15:49.362Z,99971.53
2022-12-23T10:18:55.045Z,99970.06
2022-12-23T10:22:07.398Z,99966.44
2022-12-23T10:25:15.347Z,99965.41
2022-12-23T10:28:20.210Z,99959.97
2022-12-23T10:31:40.402Z,99970.81
2022-12-23T10:34:53.580Z,99962.03
2022-12-23T10:37:58.712Z,99951.50
2022-12-23T10:41:12.800Z,99940.19
2022-12-23T10:44:36.225Z,99941.69
2022-12-23T10:47:45.072Z,99942.69
2022-12-23T10:50:55.513Z,99950.81
2022-12-23T10:54:08.496Z,99943.66
2022-12-23T10:57:16.291Z,99935.75
2022-12-23T11:00:24.870Z,99938.88
2022-12-23T11:03:31.558Z,99938.63
2022-12-23T11:06:38.430Z,99944.69
2022-12-23T11:09:46.603Z,99944.00
2022-12-23T11:12:52.877Z,99946.03
2022-12-23T11:16:12.005Z,99935.88
2022-12-23T11:19:16.599Z,99931.09
2022-12-23T11:22:23.672Z,99939.78
2022-12-23T11:25:32.899Z,99930.75
2022-12-23T11:28:47.463Z,99918.34
2022-12-23T11:31:52.253Z,99918.06
2022-12-23T11:34:58.000Z,99923.63
2022-12-23T11:38:04.301Z,99925.19
2022-12-23T11:41:10.569Z,99928.56
2022-12-23T11:44:23.756Z,99937.88
2022-12-23T11:47:34.099Z,99937.41
2022-12-23T11:50:40.593Z,99941.75
2022-12-23T11:53:47.231Z,99934.88
2022-12-23T11:56:53.217Z,99938.28
2022-12-23T12:00:02.209Z,99939.56
2022-12-23T12:03:17.517Z,99942.34
2022-12-23T12:06:23.790Z,99945.41
2022-12-23T12:09:29.595Z,99942.44
2022-12-23T12:12:33.837Z,99946.44
2022-12-23T12:15:40.268Z,99942.19
2022-12-23T12:18:55.518Z,99959.03
2022-12-23T12:22:04.377Z,99943.72
2022-12-23T12:25:20.750Z,99943.69
2022-12-23T12:28:28.811Z,99944.41
2022-12-23T12:31:43.060Z,99942.50
2022-12-23T12:35:02.231Z,99956.84
2022-12-23T12:38:15.856Z,99952.75
2022-12-23T12:41:30.007Z,99941.84
2022-12-23T12:44:54.951Z,99940.87
2022-12-23T12:48:07.194Z,99937.69
2022-12-23T12:51:34.664Z,99938.00
2022-12-23T12:54:40.863Z,99941.88
2022-12-23T12:57:47.577Z,99949.03
2022-12-23T13:00:56.201Z,99941.19
2022-12-23T13:04:31.362Z,99941.72
2022-12-23T13:07:40.067Z,99931.22
2022-12-23T13:10:58.173Z,99939.25
2022-12-23T13:14:14.708Z,99945.75
2022-12-23T13:17:22.015Z,99952.63
2022-12-23T13:20:43.188Z,99944.34
2022-12-23T13:24:03.826Z,99956.37
2022-12-23T13:27:16.590Z,99958.03
2022-12-23T13:30:25.135Z,99951.97
2022-12-23T13:33:50.045Z,99945.06
2022-12-23T13:37:14.719Z,99943.25
2022-12-23T13:40:32.049Z,99946.97
2022-12-23T13:43:44.365Z,99949.34
2022-12-23T13:46:58.718Z,99944.09
2022-12-23T13:50:09.806Z,99955.00
2022-12-23T13:53:16.685Z,99953.19
2022-12-23T13:56:24.927Z,99954.16
2022-12-23T14:00:04.686Z,99957.84
2022-12-23T14:03:23.593Z,99957.31
2022-12-23T14:06:30.608Z,99949.88
2022-12-23T14:09:39.479Z,99939.81
2022-12-23T14:17:31.197Z,99955.56
2022-12-23T14:20:38.838Z,99943.56
2022-12-23T14:23:58.358Z,99959.44
2022-12-23T14:27:26.051Z,99963.31
2022-12-23T14:30:43.398Z,99963.56
2022-12-23T14:33:50.976Z,99965.34
2022-12-23T14:37:16.157Z,99962.87
2022-12-23T14:40:41.793Z,99967.84
2022-12-23T14:43:49.281Z,99978.47
2022-12-23T14:46:55.778Z,99965.22
2022-12-23T14:50:20.304Z,99974.22
2022-12-23T14:53:26.790Z,99967.56
2022-12-23T14:56:52.166Z,99968.56
2022-12-23T15:00:02.407Z,99969.09
2022-12-23T15:03:11.956Z,99964.56
2022-12-23T15:06:21.964Z,99975.72
2022-12-23T15:09:35.045Z,99968.81
2022-12-23T15:12:42.741Z,99982.09
2022-12-23T15:16:01.051Z,99981.94
2022-12-23T15:19:18.107Z,99988.03
2022-12-23T15:22:30.164Z,99998.69
2022-12-23T15:25:42.008Z,100000.31
2022-12-23T15:28:46.287Z,100006.41
2022-12-23T15:31:53.561Z,100000.19
2022-12-23T15:35:06.533Z,99987.06
2022-12-23T15:38:17.657Z,99971.84
2022-12-23T15:41:25.818Z,99997.03
2022-12-23T15:44:38.661Z,100000.91
2022-12-23T15:47:47.032Z,99987.19
2022-12-23T15:50:56.731Z,99978.06
2022-12-23T15:54:05.909Z,99988.03
2022-12-23T15:57:19.212Z,99991.38
2022-12-23T16:00:30.485Z,99989.97
2022-12-23T16:03:41.523Z,99980.56
2022-12-23T16:06:51.592Z,99977.41
2022-12-23T16:10:01.784Z,99977.28
2022-12-23T16:13:18.507Z,99976.56
2022-12-23T16:16:27.953Z,99975.44
2022-12-23T16:19:41.120Z,99987.34
2022-12-23T16:22:50.954Z,99984.84
2022-12-23T16:25:57.920Z,99991.19
2022-12-23T16:29:10.550Z,99989.25
2022-12-23T16:32:20.224Z,99979.47
2022-12-23T16:35:29.371Z,99972.25
2022-12-23T16:38:36.595Z,99990.50
2022-12-23T16:41:48.441Z,99986.94
2022-12-23T16:44:55.763Z,99983.06
2022-12-23T16:48:03.080Z,99973.66
2022-12-23T16:51:12.905Z,99969.81
2022-12-23T16:54:23.449Z,99984.03
2022-12-23T16:57:30.919Z,99980.31
2022-12-23T17:00:42.840Z,99980.69
2022-12-23T17:03:49.123Z,99977.09
2022-12-23T17:06:55.242Z,99958.72
2022-12-23T17:10:02.470Z,99972.16
2022-12-23T17:13:15.538Z,99970.06
2022-12-23T17:16:25.467Z,99980.31
2022-12-23T17:19:32.963Z,99973.62
2022-12-23T17:22:40.540Z,99972.38
2022-12-23T17:25:47.752Z,99966.44
2022-12-23T17:28:53.540Z,99975.53
2022-12-23T17:32:04.380Z,99963.94
2022-12-23T17:35:16.015Z,99965.47
2022-12-23T17:38:24.641Z,99959.41
2022-12-23T17:41:33.156Z,99951.97
2022-12-23T17:44:42.928Z,99953.03
2022-12-23T17:47:48.102Z,99944.50
2022-12-23T17:50:56.612Z,99965.75
2022-12-23T17:54:03.781Z,99959.84
2022-12-23T17:57:19.693Z,99961.50
2022-12-23T18:00:33.866Z,99959.00
2022-12-23T18:03:42.799Z,99960.91
2022-12-23T18:06:52.254Z,99959.53
2022-12-23T18:10:02.383Z,99958.59
2022-12-23T18:13:10.910Z,99955.00
2022-12-23T18:16:17.267Z,99943.38
2022-12-23T18:19:23.933Z,99950.16
2022-12-23T18:22:32.346Z,99955.97
2022-12-23T18:25:38.927Z,99955.00
2022-12-23T18:28:46.230Z,99958.19
2022-12-23T18:31:55.242Z,99955.56
2022-12-23T18:35:00.862Z,99943.56
2022-12-23T18:38:07.267Z,99958.88
2022-12-23T18:41:14.314Z,99946.00
2022-12-23T18:44:23.991Z,99960.22
2022-12-23T18:47:33.119Z,99962.00
2022-12-23T18:50:43.771Z,99962.25
2022-12-23T18:53:51.130Z,99978.44
2022-12-23T18:57:02.957Z,99968.34
2022-12-23T19:00:14.030Z,99966.03
2022-12-23T19:03:24.875Z,99980.47
2022-12-23T19:06:31.416Z,99973.75
2022-12-23T19:09:41.776Z,99971.13
2022-12-23T19:12:50.861Z,99967.50
2022-12-23T19:15:56.403Z,99982.06
2022-12-23T19:19:05.305Z,99977.22
2022-12-23T19:22:11.759Z,99987.31
2022-12-23T19:25:20.990Z,99990.19
2022-12-23T19:28:28.673Z,99990.16
2022-12-23T19:31:37.531Z,99998.03
2022-12-23T19:34:44.141Z,99985.47
2022-12-23T19:37:48.813Z,99993.37
2022-12-23T19:40:56.641Z,99987.56
2022-12-23T19:44:00.305Z,100001.66
2022-12-23T19:47:05.309Z,99992.56
2022-12-23T19:50:13.535Z,99997.81
2022-12-23T19:53:19.099Z,99993.13
2022-12-23T19:56:27.917Z,99997.97
2022-12-23T19:59:36.647Z,100002.47
2022-12-23T20:02:44.185Z,100014.09
2022-12-23T20:05:52.533Z,100012.84
2022-12-23T20:09:04.380Z,100014.66
2022-12-23T20:12:10.052Z,100020.34
2022-12-23T20:15:15.362Z,100006.66
2022-12-23T20:18:24.669Z,100002.06
2022-12-23T20:21:31.860Z,100007.91
2022-12-23T20:24:37.822Z,100008.16
2022-12-23T20:27:44.435Z,100002.34
2022-12-23T20:31:00.963Z,100008.03
2022-12-23T20:34:12.549Z,99996.41
2022-12-23T20:37:21.689Z,99991.03
2022-12-23T20:40:30.051Z,99984.00
2022-12-23T20:43:38.791Z,99977.50
2022-12-23T20:46:44.223Z,99979.31
2022-12-23T20:49:53.108Z,99974.75
2022-12-23T20:53:00.596Z,99966.88
2022-12-23T20:56:11.823Z,99958.44
2022-12-23T20:59:17.516Z,99963.81
2022-12-23T21:02:29.450Z,99972.50
2022-12-23T21:05:37.871Z,99966.31
2022-12-23T21:08:45.971Z,99970.84
2022-12-23T21:11:54.175Z,99974.59
2022-12-23T21:15:02.273Z,99967.78
2022-12-23T21:18:10.417Z,99961.13
2022-12-23T21:21:19.594Z,99964.28
2022-12-23T21:24:26.874Z,99964.56
2022-12-23T21:27:32.793Z,99959.31
2022-12-23T21:30:39.583Z,99953.25
2022-12-23T21:33:47.204Z,99955.03
2022-12-23T21:36:55.980Z,99957.56
2022-12-23T21:40:09.075Z,99953.28
2022-12-23T21:43:15.182Z,99937.81
2022-12-23T21:46:27.366Z,99920.28
2022-12-23T21:49:36.789Z,99932.53
2022-12-23T21:52:43.522Z,99932.00
2022-12-23T21:55:49.936Z,99927.72
2022-12-23T21:58:57.639Z,99921.94
2022-12-23T22:02:03.764Z,99928.31
2022-12-23T22:05:11.196Z,99925.28
2022-12-23T22:08:17.073Z,99920.44
2022-12-23T22:11:27.308Z,99895.59
2022-12-23T22:14:33.903Z,99888.13
2022-12-23T22:17:42.914Z,99869.91
2022-12-23T22:20:53.096Z,99865.06
2022-12-23T22:23:59.413Z,99857.47
2022-12-23T22:27:07.149Z,99851.63
2022-12-23T22:30:14.557Z,99848.34
2022-12-23T22:33:19.874Z,99853.06
2022-12-23T22:36:26.764Z,99849.72
2022-12-23T22:39:33.473Z,99851.94
2022-12-23T22:42:40.881Z,99849.03
2022-12-23T22:45:48.948Z,99843.38
2022-12-23T22:48:54.747Z,99841.44
2022-12-23T22:52:00.161Z,99835.38
2022-12-23T22:55:08.553Z,99832.47
2022-12-23T22:58:18.292Z,99834.94
2022-12-23T23:01:25.919Z,99829.56
2022-12-23T23:04:33.496Z,99823.78
2022-12-23T23:07:40.202Z,99814.78
2022-12-23T23:10:46.265Z,99820.03
2022-12-23T23:13:56.121Z,99825.28
2022-12-23T23:17:03.125Z,99827.50
2022-12-23T23:20:08.389Z,99817.41
2022-12-23T23:23:12.487Z,99835.53
2022-12-23T23:26:20.783Z,99836.88
2022-12-23T23:29:24.505Z,99840.34
2022-12-23T23:32:29.188Z,99846.13
2022-12-23T23:35:36.851Z,99856.34
2022-12-23T23:38:43.371Z,99857.19
2022-12-23T23:41:47.945Z,99844.47
2022-12-23T23:44:55.471Z,99857.72
2022-12-23T23:48:03.214Z,99838.81
2022-12-23T23:51:07.965Z,99821.56
2022-12-23T23:54:13.245Z,99831.22
2022-12-23T23:57:18.884Z,99818.78
